createdAt,value
2023-03-22T00:05:07.621Z,44.05
2023-03-22T00:10:29.488Z,42.15
2023-03-22T00:15:51.363Z,45.58
2023-03-22T00:21:15.232Z,44.45
2023-03-22T00:26:37.060Z,41.22
2023-03-22T00:31:58.896Z,45.67
2023-03-22T00:37:21.592Z,46.65
2023-03-22T00:42:43.634Z,47.95
2023-03-22T00:48:05.763Z,46.42
2023-03-22T00:53:27.773Z,45.95
2023-03-22T00:58:49.607Z,43.63
2023-03-22T01:04:11.848Z,46.08
2023-03-22T01:09:34.150Z,44.63
2023-03-22T01:14:56.010Z,43.28
2023-03-22T01:20:18.254Z,42.92
2023-03-22T01:25:40.080Z,41.65
2023-03-22T01:31:03.002Z,40.30
2023-03-22T01:36:24.981Z,42.35
2023-03-22T01:41:46.796Z,42.42
2023-03-22T01:47:09.637Z,44.88
2023-03-22T01:52:31.624Z,49.83
2023-03-22T01:57:54.764Z,47.60
2023-03-22T02:03:24.884Z,54.40
2023-03-22T02:08:46.865Z,51.80
2023-03-22T02:14:13.704Z,58.25
2023-03-22T02:19:57.866Z,58.55
2023-03-22T02:25:28.644Z,58.35
2023-03-22T02:30:53.113Z,59.08
2023-03-22T02:36:18.053Z,58.53
2023-03-22T02:41:46.313Z,51.40
2023-03-22T02:47:14.226Z,53.92
2023-03-22T02:52:53.842Z,55.20
2023-03-22T02:58:24.127Z,54.85
2023-03-22T03:03:49.197Z,54.50
2023-03-22T03:09:11.227Z,55.15
2023-03-22T03:14:33.147Z,52.92
2023-03-22T03:20:21.214Z,56.75
2023-03-22T03:26:27.693Z,56.10
2023-03-22T03:32:04.976Z,55.42
2023-03-22T03:37:35.996Z,54.22
2023-03-22T03:43:01.650Z,47.03
2023-03-22T03:48:28.382Z,43.97
2023-03-22T03:53:50.229Z,42.78
2023-03-22T03:59:12.070Z,47.45
2023-03-22T04:04:34.009Z,44.08
2023-03-22T04:09:55.981Z,45.38
2023-03-22T04:15:18.002Z,45.65
2023-03-22T04:20:40.464Z,42.30
2023-03-22T04:26:02.506Z,41.28
2023-03-22T04:31:25.538Z,43.40
2023-03-22T04:36:47.397Z,31.33
2023-03-22T04:42:09.649Z,32.28
2023-03-22T04:47:31.505Z,30.35
2023-03-22T04:52:53.450Z,34.00
2023-03-22T04:58:15.294Z,31.05
2023-03-22T05:03:37.308Z,29.65
2023-03-22T05:09:00.183Z,30.13
2023-03-22T05:14:22.075Z,27.95
2023-03-22T05:19:43.973Z,28.17
2023-03-22T05:25:06.874Z,34.90
2023-03-22T05:30:30.073Z,28.42
2023-03-22T05:35:51.952Z,30.70
2023-03-22T05:41:14.543Z,24.15
2023-03-22T05:46:36.440Z,25.00
2023-03-22T05:51:58.281Z,24.42
2023-03-22T05:57:20.097Z,23.13
2023-03-22T06:02:47.585Z,23.35
2023-03-22T06:08:09.424Z,22.60
2023-03-22T06:13:31.482Z,24.10
2023-03-22T06:18:53.720Z,23.85
2023-03-22T06:24:15.785Z,22.15
2023-03-22T06:29:37.624Z,19.90
2023-03-22T06:34:59.478Z,18.30
2023-03-22T06:40:21.364Z,17.73
2023-03-22T06:45:43.227Z,18.30
2023-03-22T06:51:05.613Z,17.65
2023-03-22T06:56:27.556Z,16.23
2023-03-22T07:01:49.464Z,14.95
2023-03-22T07:07:11.387Z,13.98
2023-03-22T07:12:33.673Z,14.07
2023-03-22T07:17:55.711Z,14.88
2023-03-22T07:23:18.553Z,12.23
2023-03-22T07:28:40.595Z,13.98
2023-03-22T07:34:05.782Z,12.80
2023-03-22T07:39:27.752Z,13.25
2023-03-22T07:44:49.919Z,12.70
2023-03-22T07:50:12.941Z,12.27
2023-03-22T07:55:35.168Z,11.82
2023-03-22T08:00:57.159Z,12.10
2023-03-22T08:06:19.792Z,12.38
2023-03-22T08:11:41.649Z,13.00
2023-03-22T08:17:06.499Z,13.30
2023-03-22T08:22:28.402Z,14.93
2023-03-22T08:27:50.445Z,12.82
2023-03-22T08:33:12.709Z,13.07
2023-03-22T08:38:34.586Z,14.52
2023-03-22T08:43:56.534Z,13.75
2023-03-22T08:49:18.448Z,14.13
2023-03-22T08:54:40.298Z,14.82
2023-03-22T09:00:04.993Z,14.93
2023-03-22T09:05:26.946Z,14.90
2023-03-22T09:10:49.820Z,16.70
2023-03-22T09:16:12.151Z,18.40
2023-03-22T09:21:34.136Z,15.50
2023-03-22T09:26:55.999Z,14.98
2023-03-22T09:32:18.232Z,14.23
2023-03-22T09:37:40.075Z,16.10
2023-03-22T09:43:05.788Z,14.75
2023-03-22T09:48:32.075Z,14.37
2023-03-22T09:53:53.950Z,12.52
2023-03-22T09:59:21.336Z,12.40
2023-03-22T10:05:23.028Z,12.88
2023-03-22T10:10:45.365Z,11.95
2023-03-22T10:16:12.012Z,12.80
2023-03-22T10:21:35.785Z,13.13
2023-03-22T10:26:57.774Z,12.38
2023-03-22T10:32:45.214Z,12.50
2023-03-22T10:38:20.773Z,11.60
2023-03-22T10:43:43.679Z,10.95
2023-03-22T10:49:07.694Z,11.52
2023-03-22T10:54:30.235Z,11.05
2023-03-22T10:59:55.935Z,10.80
2023-03-22T11:05:25.643Z,10.27
2023-03-22T11:10:50.358Z,10.45
2023-03-22T11:16:17.577Z,9.35
2023-03-22T11:21:41.906Z,10.63
2023-03-22T11:27:22.936Z,9.63
2023-03-22T11:32:44.851Z,10.77
2023-03-22T11:38:06.690Z,9.65
2023-03-22T11:43:46.196Z,11.65
2023-03-22T11:49:12.859Z,10.07
2023-03-22T11:54:36.302Z,12.00
2023-03-22T12:00:08.033Z,10.02
2023-03-22T12:05:33.327Z,10.65
2023-03-22T12:11:25.411Z,9.75
2023-03-22T12:16:59.977Z,9.77
2023-03-22T12:22:30.721Z,9.77
2023-03-22T12:28:16.792Z,9.85
2023-03-22T12:33:49.733Z,9.05
2023-03-22T12:39:33.964Z,10.10
2023-03-22T12:45:12.762Z,9.77
2023-03-22T12:50:37.357Z,9.55
2023-03-22T12:56:01.551Z,10.38
2023-03-22T13:01:31.654Z,10.55
2023-03-22T13:06:53.900Z,10.02
2023-03-22T13:12:15.695Z,12.15
2023-03-22T13:17:44.407Z,8.18
2023-03-22T13:23:24.604Z,7.75
2023-03-22T13:29:01.834Z,8.48
2023-03-22T13:34:45.220Z,8.45
2023-03-22T13:40:14.942Z,8.40
2023-03-22T13:45:36.895Z,9.23
2023-03-22T13:51:10.628Z,8.73
2023-03-22T13:56:48.154Z,8.82
2023-03-22T14:02:10.455Z,8.40
2023-03-22T14:07:42.130Z,8.18
2023-03-22T14:13:16.788Z,8.45
2023-03-22T14:18:45.349Z,8.00
